createdAt,value
2019-04-16T00:00:11.877Z,10.97
2019-04-16T00:00:47.327Z,11.10
2019-04-16T00:01:21.326Z,10.70
2019-04-16T00:02:12.218Z,11.10
2019-04-16T00:02:52.278Z,10.90
2019-04-16T00:03:23.872Z,9.70
2019-04-16T00:03:57.069Z,10.90
2019-04-16T00:04:37.231Z,9.90
2019-04-16T00:05:13.009Z,10.90
2019-04-16T00:05:58.655Z,9.57
2019-04-16T00:06:32.570Z,10.00
2019-04-16T00:07:05.835Z,10.33
2019-04-16T00:07:41.492Z,9.53
2019-04-16T00:08:27.874Z,11.13
2019-04-16T00:08:54.162Z,11.97
2019-04-16T00:09:31.285Z,12.70
2019-04-16T00:10:23.815Z,13.27
2019-04-16T00:10:57.901Z,15.27
2019-04-16T00:11:48.718Z,17.00
2019-04-16T00:12:21.812Z,16.37
2019-04-16T00:12:54.890Z,16.77
2019-04-16T00:13:30.880Z,16.77
2019-04-16T00:14:08.505Z,18.83
2019-04-16T00:14:42.298Z,20.20
2019-04-16T00:15:13.477Z,20.07
2019-04-16T00:15:44.762Z,20.07
2019-04-16T00:16:15.960Z,20.80
2019-04-16T00:16:47.149Z,20.50
2019-04-16T00:17:18.331Z,19.90
2019-04-16T00:17:49.523Z,18.87
2019-04-16T00:18:20.905Z,19.37
2019-04-16T00:18:57.983Z,18.07
2019-04-16T00:19:25.155Z,18.43
2019-04-16T00:19:56.349Z,17.93
2019-04-16T00:20:27.525Z,19.63
2019-04-16T00:21:00.640Z,19.43
2019-04-16T00:21:41.239Z,17.30
2019-04-16T00:22:23.529Z,15.67
2019-04-16T00:23:03.697Z,16.13
2019-04-16T00:23:53.300Z,14.73
2019-04-16T00:24:26.366Z,15.53
2019-04-16T00:24:57.592Z,15.10
2019-04-16T00:25:28.876Z,16.43
2019-04-16T00:26:00.191Z,15.67
2019-04-16T00:26:31.473Z,15.87
2019-04-16T00:27:02.923Z,14.73
2019-04-16T00:27:34.161Z,14.97
2019-04-16T00:28:05.374Z,14.20
2019-04-16T00:28:36.528Z,13.63
2019-04-16T00:29:08.848Z,14.00
2019-04-16T00:29:40.060Z,13.73
2019-04-16T00:30:12.203Z,12.13
2019-04-16T00:30:43.398Z,11.30
2019-04-16T00:31:14.678Z,11.33
2019-04-16T00:31:47.767Z,11.10
2019-04-16T00:32:20.902Z,10.63
2019-04-16T00:32:52.066Z,10.20
2019-04-16T00:33:23.287Z,10.97
2019-04-16T00:33:54.443Z,10.90
2019-04-16T00:34:25.658Z,10.27
2019-04-16T00:34:56.898Z,10.77
2019-04-16T00:35:28.146Z,9.23
2019-04-16T00:35:59.374Z,10.07
2019-04-16T00:36:30.613Z,9.77
2019-04-16T00:37:01.852Z,9.10
2019-04-16T00:37:33.109Z,9.27
2019-04-16T00:38:04.360Z,9.43
2019-04-16T00:38:40.980Z,9.93
2019-04-16T00:39:09.148Z,9.33
2019-04-16T00:39:41.847Z,9.50
2019-04-16T00:40:13.096Z,9.63
2019-04-16T00:40:44.352Z,8.90
2019-04-16T00:41:15.574Z,10.13
2019-04-16T00:41:46.780Z,8.93
2019-04-16T00:42:19.025Z,8.03
2019-04-16T00:42:50.289Z,7.73
2019-04-16T00:43:21.528Z,8.30
2019-04-16T00:43:52.764Z,8.97
2019-04-16T00:44:24.017Z,8.23
2019-04-16T00:44:55.575Z,8.60
2019-04-16T00:45:26.933Z,8.93
2019-04-16T00:45:58.275Z,8.50
2019-04-16T00:46:29.481Z,8.50
2019-04-16T00:47:00.706Z,8.60
2019-04-16T00:47:32.052Z,8.87
2019-04-16T00:48:03.290Z,8.23
2019-04-16T00:48:34.557Z,9.00
2019-04-16T00:49:05.799Z,8.57
2019-04-16T00:49:37.979Z,8.23
2019-04-16T00:50:09.489Z,8.80
2019-04-16T00:50:40.743Z,8.10
2019-04-16T00:51:11.998Z,8.53
2019-04-16T00:51:43.226Z,8.17
2019-04-16T00:52:14.389Z,8.30
2019-04-16T00:52:45.601Z,7.87
2019-04-16T00:53:16.768Z,8.00
2019-04-16T00:53:47.993Z,8.50
2019-04-16T00:54:19.143Z,8.47
2019-04-16T00:54:50.358Z,9.23
2019-04-16T00:55:21.526Z,9.30
2019-04-16T00:55:52.840Z,8.70
2019-04-16T00:56:24.032Z,8.80
2019-04-16T00:56:55.247Z,8.93
2019-04-16T00:57:26.410Z,8.70
2019-04-16T00:57:57.626Z,8.70
2019-04-16T00:58:29.840Z,10.63
2019-04-16T00:59:02.175Z,10.70
2019-04-16T00:59:33.420Z,12.27
2019-04-16T01:00:05.146Z,12.47
2019-04-16T01:00:36.400Z,13.03
2019-04-16T01:01:07.614Z,11.33
2019-04-16T01:01:38.845Z,10.73
2019-04-16T01:02:10.153Z,10.40
2019-04-16T01:02:41.355Z,10.70
2019-04-16T01:03:12.625Z,10.00
2019-04-16T01:03:43.779Z,10.03
2019-04-16T01:04:14.997Z,10.27
2019-04-16T01:04:46.172Z,10.60
2019-04-16T01:05:17.505Z,11.10
2019-04-16T01:05:48.659Z,10.53
2019-04-16T01:06:19.848Z,10.00
2019-04-16T01:06:51.042Z,10.27
2019-04-16T01:07:22.257Z,10.17
2019-04-16T01:07:53.419Z,11.07
2019-04-16T01:08:24.641Z,11.47
2019-04-16T01:08:55.805Z,13.30
2019-04-16T01:09:27.609Z,13.73
2019-04-16T01:09:58.766Z,13.43
2019-04-16T01:10:29.980Z,13.77
2019-04-16T01:11:01.125Z,12.47
2019-04-16T01:11:32.365Z,13.13
2019-04-16T01:12:03.660Z,13.10
2019-04-16T01:12:34.872Z,13.87
2019-04-16T01:13:06.030Z,14.37
2019-04-16T01:13:37.248Z,13.90
2019-04-16T01:14:08.398Z,15.23
2019-04-16T01:14:39.713Z,15.30
2019-04-16T01:15:10.971Z,15.13
2019-04-16T01:15:42.232Z,14.57
2019-04-16T01:16:13.474Z,14.83
2019-04-16T01:16:44.692Z,14.07
2019-04-16T01:17:15.892Z,16.17
2019-04-16T01:17:47.107Z,14.63
2019-04-16T01:18:18.260Z,15.03
2019-04-16T01:18:49.472Z,14.60
2019-04-16T01:19:20.625Z,15.07
2019-04-16T01:19:51.984Z,14.37
2019-04-16T01:20:23.140Z,14.13
2019-04-16T01:20:54.426Z,13.63
2019-04-16T01:21:25.652Z,13.33
2019-04-16T01:21:56.862Z,12.40
2019-04-16T01:22:28.051Z,12.17
2019-04-16T01:22:59.272Z,11.57
2019-04-16T01:23:30.430Z,11.53
2019-04-16T01:24:01.696Z,11.00
2019-04-16T01:24:32.883Z,11.03
2019-04-16T01:25:05.302Z,11.33
2019-04-16T01:25:36.461Z,11.33
2019-04-16T01:26:07.834Z,11.33
2019-04-16T01:26:39.119Z,10.03
2019-04-16T01:27:10.330Z,11.13
2019-04-16T01:27:43.670Z,11.17
2019-04-16T01:28:33.155Z,11.90
2019-04-16T01:29:06.209Z,11.87
2019-04-16T01:29:37.423Z,11.60
2019-04-16T01:30:10.572Z,11.40
2019-04-16T01:30:46.500Z,11.03
2019-04-16T01:31:17.659Z,11.10
2019-04-16T01:31:57.656Z,10.23
2019-04-16T01:32:47.159Z,10.00
2019-04-16T01:33:23.138Z,9.80
2019-04-16T01:33:57.181Z,10.53
2019-04-16T01:34:34.378Z,10.33
2019-04-16T01:35:18.708Z,10.87
2019-04-16T01:36:00.261Z,9.87
2019-04-16T01:36:36.230Z,9.73
2019-04-16T01:37:17.995Z,9.40
2019-04-16T01:38:07.596Z,9.87
2019-04-16T01:38:52.722Z,9.73
2019-04-16T01:39:28.496Z,9.10
2019-04-16T01:40:01.423Z,9.03
2019-04-16T01:40:34.506Z,9.57
2019-04-16T01:41:07.594Z,9.17
2019-04-16T01:41:38.802Z,10.10
2019-04-16T01:42:09.981Z,8.97
2019-04-16T01:42:41.358Z,9.93
2019-04-16T01:43:12.598Z,10.33
2019-04-16T01:43:43.797Z,10.57
2019-04-16T01:44:14.959Z,10.60
2019-04-16T01:44:46.174Z,9.90
2019-04-16T01:45:17.333Z,10.37
2019-04-16T01:45:48.541Z,10.30
2019-04-16T01:46:19.709Z,10.60
2019-04-16T01:46:50.924Z,10.13
2019-04-16T01:47:22.098Z,10.17
2019-04-16T01:47:53.318Z,11.53
2019-04-16T01:48:24.495Z,11.37
2019-04-16T01:48:55.713Z,11.83
2019-04-16T01:49:26.879Z,11.77
2019-04-16T01:49:58.103Z,11.13
2019-04-16T01:50:29.263Z,11.80
2019-04-16T01:51:00.568Z,11.83
2019-04-16T01:51:31.729Z,11.83
2019-04-16T01:52:02.940Z,11.87
2019-04-16T01:52:34.149Z,11.60
2019-04-16T01:53:05.384Z,12.47
2019-04-16T01:53:36.581Z,11.63
2019-04-16T01:54:08.866Z,12.10
2019-04-16T01:54:40.281Z,12.60
2019-04-16T01:55:11.810Z,12.30
2019-04-16T01:55:43.066Z,12.27
2019-04-16T01:56:14.330Z,12.40
2019-04-16T01:56:45.586Z,11.93
2019-04-16T01:57:16.854Z,12.63
2019-04-16T01:57:48.104Z,13.87
2019-04-16T01:58:19.363Z,14.80
2019-04-16T01:58:50.604Z,13.83
2019-04-16T01:59:21.984Z,14.60
2019-04-16T01:59:53.218Z,13.47
2019-04-16T02:00:24.490Z,13.57
2019-04-16T02:00:55.742Z,13.77
2019-04-16T02:01:26.985Z,12.90
2019-04-16T02:01:58.254Z,13.20
2019-04-16T02:02:29.507Z,12.37
2019-04-16T02:03:00.752Z,11.40
2019-04-16T02:03:31.998Z,11.30
2019-04-16T02:04:03.213Z,10.87
2019-04-16T02:04:34.371Z,11.20
2019-04-16T02:05:05.677Z,10.47
2019-04-16T02:05:36.844Z,9.93
2019-04-16T02:06:08.242Z,11.70
2019-04-16T02:06:39.402Z,10.93
2019-04-16T02:07:10.587Z,12.30
2019-04-16T02:07:41.935Z,11.90
2019-04-16T02:08:13.190Z,12.13
2019-04-16T02:08:44.341Z,11.67
2019-04-16T02:09:22.242Z,11.30
2019-04-16T02:09:48.608Z,10.33
2019-04-16T02:10:19.756Z,11.97
2019-04-16T02:10:50.968Z,10.27
2019-04-16T02:11:22.126Z,11.63
2019-04-16T02:11:53.331Z,12.33
2019-04-16T02:12:24.478Z,12.07
2019-04-16T02:12:55.692Z,11.90
2019-04-16T02:13:26.841Z,10.90
2019-04-16T02:13:58.051Z,11.23
2019-04-16T02:14:29.235Z,10.50
2019-04-16T02:15:00.485Z,10.67
2019-04-16T02:15:31.941Z,11.80
2019-04-16T02:16:03.155Z,10.53
2019-04-16T02:16:34.343Z,10.20
2019-04-16T02:17:05.631Z,10.77
2019-04-16T02:17:36.786Z,11.67
2019-04-16T02:18:08.254Z,11.70
2019-04-16T02:18:39.408Z,10.97
2019-04-16T02:19:10.616Z,11.80
2019-04-16T02:19:41.798Z,10.60
2019-04-16T02:20:13.023Z,11.00
2019-04-16T02:20:44.186Z,11.07
2019-04-16T02:21:15.408Z,10.90
2019-04-16T02:21:46.584Z,11.43
2019-04-16T02:22:17.799Z,11.00
2019-04-16T02:22:48.956Z,10.60
2019-04-16T02:23:20.171Z,10.73
2019-04-16T02:23:51.331Z,10.80
2019-04-16T02:24:22.661Z,10.70
2019-04-16T02:24:53.857Z,10.70
2019-04-16T02:25:25.043Z,10.47
2019-04-16T02:25:56.253Z,11.27
2019-04-16T02:26:27.441Z,10.50
2019-04-16T02:26:58.625Z,11.73
2019-04-16T02:27:29.823Z,12.70
2019-04-16T02:28:01.019Z,10.70
2019-04-16T02:28:32.210Z,13.30
2019-04-16T02:29:03.395Z,15.83
2019-04-16T02:29:34.590Z,15.30
2019-04-16T02:30:06.036Z,14.63
2019-04-16T02:30:39.529Z,15.23
2019-04-16T02:31:15.854Z,16.57
2019-04-16T02:31:43.624Z,15.30
2019-04-16T02:32:14.781Z,12.57
2019-04-16T02:32:46.014Z,14.13
2019-04-16T02:33:18.189Z,14.77
2019-04-16T02:33:50.661Z,15.70
2019-04-16T02:34:21.859Z,13.63
2019-04-16T02:34:53.154Z,13.90
2019-04-16T02:35:24.384Z,13.70
2019-04-16T02:35:55.572Z,14.63
2019-04-16T02:36:26.757Z,13.27
2019-04-16T02:37:02.494Z,11.97
2019-04-16T02:37:35.520Z,12.97
2019-04-16T02:38:11.124Z,12.90
2019-04-16T02:38:37.162Z,10.70
2019-04-16T02:39:08.318Z,11.37
2019-04-16T02:39:48.581Z,11.03
2019-04-16T02:40:17.022Z,11.63
2019-04-16T02:40:51.599Z,10.97
2019-04-16T02:41:23.236Z,11.03
2019-04-16T02:41:56.826Z,11.23
2019-04-16T02:42:30.445Z,11.20
2019-04-16T02:43:03.944Z,11.03
2019-04-16T02:43:31.540Z,10.37
2019-04-16T02:44:03.274Z,10.70
2019-04-16T02:44:34.435Z,11.17
2019-04-16T02:45:05.758Z,11.30
2019-04-16T02:45:36.956Z,11.43
2019-04-16T02:46:08.505Z,12.67
2019-04-16T02:46:40.753Z,18.37
2019-04-16T02:47:12.009Z,20.27
2019-04-16T02:47:43.247Z,14.07
2019-04-16T02:48:16.668Z,13.87
2019-04-16T02:48:51.473Z,12.60
2019-04-16T02:49:24.453Z,12.57
2019-04-16T02:49:56.802Z,12.93
2019-04-16T02:50:32.258Z,14.27
2019-04-16T02:51:08.710Z,15.23
2019-04-16T02:51:41.838Z,14.73
2019-04-16T02:52:16.451Z,18.20
2019-04-16T02:52:55.646Z,18.57
2019-04-16T02:53:29.712Z,17.47
2019-04-16T02:54:02.773Z,16.13
2019-04-16T02:54:35.903Z,17.17
2019-04-16T02:55:20.703Z,17.33
2019-04-16T02:55:53.814Z,14.60
2019-04-16T02:56:24.997Z,14.20
2019-04-16T02:56:59.102Z,13.97
2019-04-16T02:57:45.370Z,13.03
2019-04-16T02:58:21.407Z,12.60
2019-04-16T02:59:00.510Z,11.73
2019-04-16T02:59:33.668Z,11.67
2019-04-16T03:00:06.819Z,11.50
2019-04-16T03:00:38.521Z,13.13
2019-04-16T03:01:28.093Z,13.67
2019-04-16T03:02:17.457Z,11.23
2019-04-16T03:02:56.400Z,11.50
2019-04-16T03:03:32.145Z,11.40
2019-04-16T03:04:14.203Z,11.00
2019-04-16T03:04:58.040Z,11.30
2019-04-16T03:05:29.014Z,11.13
2019-04-16T03:06:01.881Z,10.77
2019-04-16T03:06:33.383Z,11.90
2019-04-16T03:07:04.649Z,11.93
2019-04-16T03:07:35.895Z,11.17
2019-04-16T03:08:07.114Z,11.60
2019-04-16T03:08:38.443Z,11.10
2019-04-16T03:09:09.976Z,10.80
2019-04-16T03:09:41.532Z,11.97
2019-04-16T03:10:13.914Z,11.07
2019-04-16T03:10:45.421Z,12.00
2019-04-16T03:11:17.994Z,11.83
2019-04-16T03:11:49.365Z,11.57
2019-04-16T03:12:21.527Z,11.97
2019-04-16T03:12:52.980Z,11.07
2019-04-16T03:13:24.822Z,11.73
2019-04-16T03:13:59.242Z,11.50
2019-04-16T03:14:30.131Z,12.20
2019-04-16T03:15:02.795Z,11.60
2019-04-16T03:15:35.978Z,12.47
2019-04-16T03:16:09.655Z,12.60
2019-04-16T03:16:55.536Z,12.60
2019-04-16T03:17:42.914Z,14.20
2019-04-16T03:18:16.230Z,12.20
2019-04-16T03:19:04.173Z,13.27
2019-04-16T03:19:43.181Z,14.67
2019-04-16T03:20:16.529Z,18.57
2019-04-16T03:20:47.776Z,19.10
2019-04-16T03:21:19.021Z,21.07
2019-04-16T03:21:50.267Z,22.63
2019-04-16T03:22:21.483Z,20.10
2019-04-16T03:22:52.669Z,20.60
2019-04-16T03:23:23.906Z,18.50
2019-04-16T03:23:55.146Z,16.97
2019-04-16T03:24:26.394Z,17.53
2019-04-16T03:24:57.744Z,18.40
2019-04-16T03:25:29.024Z,19.00
2019-04-16T03:26:00.261Z,19.57
2019-04-16T03:26:31.494Z,19.97
2019-04-16T03:27:04.567Z,21.30
2019-04-16T03:27:35.858Z,21.27
2019-04-16T03:28:07.040Z,20.73
2019-04-16T03:28:38.390Z,19.93
2019-04-16T03:29:10.652Z,18.97
2019-04-16T03:29:41.992Z,20.67
2019-04-16T03:30:13.650Z,21.33
2019-04-16T03:30:45.031Z,21.73
2019-04-16T03:31:22.304Z,22.17
2019-04-16T03:31:57.323Z,21.97
2019-04-16T03:32:22.606Z,18.50
2019-04-16T03:32:53.829Z,17.77
2019-04-16T03:33:25.265Z,15.20
2019-04-16T03:33:56.549Z,17.43
2019-04-16T03:34:27.823Z,16.43
2019-04-16T03:34:59.111Z,16.40
2019-04-16T03:35:30.389Z,17.03
2019-04-16T03:36:01.646Z,18.37
2019-04-16T03:36:32.893Z,20.93
2019-04-16T03:37:04.145Z,20.07
2019-04-16T03:37:35.328Z,18.77
2019-04-16T03:38:06.574Z,17.27
2019-04-16T03:38:41.803Z,18.17
2019-04-16T03:39:13.190Z,19.13
2019-04-16T03:39:44.927Z,19.03
2019-04-16T03:40:18.642Z,29.83
2019-04-16T03:40:49.467Z,36.10
2019-04-16T03:41:20.722Z,35.77
2019-04-16T03:41:56.016Z,40.80
2019-04-16T03:42:27.390Z,44.63
2019-04-16T03:42:59.302Z,65.53
2019-04-16T03:43:32.828Z,55.27
2019-04-16T03:44:05.104Z,51.20
2019-04-16T03:44:37.452Z,56.93
2019-04-16T03:45:09.864Z,58.23
2019-04-16T03:45:41.750Z,72.37
2019-04-16T03:46:14.190Z,58.10
2019-04-16T03:46:46.916Z,40.07
2019-04-16T03:47:19.877Z,29.87
2019-04-16T03:47:52.280Z,28.00
2019-04-16T03:48:24.483Z,26.03
2019-04-16T03:48:56.471Z,24.97
2019-04-16T03:49:28.491Z,21.53
2019-04-16T03:50:00.254Z,21.33
2019-04-16T03:50:32.231Z,22.50
2019-04-16T03:51:04.757Z,22.30
2019-04-16T03:51:36.579Z,21.20
2019-04-16T03:52:09.437Z,20.40
2019-04-16T03:52:45.501Z,19.93
2019-04-16T03:53:17.487Z,25.53
2019-04-16T03:53:49.541Z,30.03
2019-04-16T03:54:22.380Z,32.77
2019-04-16T03:54:54.709Z,83.60
2019-04-16T03:55:26.573Z,97.60
2019-04-16T03:55:58.305Z,108.30
2019-04-16T03:56:31.189Z,140.10
2019-04-16T03:57:02.876Z,136.13
2019-04-16T03:57:34.163Z,121.20
2019-04-16T03:58:06.751Z,119.53
2019-04-16T03:58:39.393Z,123.67
2019-04-16T03:59:12.044Z,116.83
2019-04-16T03:59:43.791Z,104.27
2019-04-16T04:00:15.031Z,106.37
2019-04-16T04:00:46.275Z,101.57
2019-04-16T04:01:17.537Z,101.87
2019-04-16T04:01:48.769Z,94.33
2019-04-16T04:02:22.868Z,90.27
2019-04-16T04:02:55.149Z,82.37
2019-04-16T04:03:26.928Z,85.23
2019-04-16T04:03:58.588Z,84.10
2019-04-16T04:04:30.030Z,86.23
2019-04-16T04:05:06.119Z,84.73
2019-04-16T04:05:35.663Z,80.50
2019-04-16T04:06:08.082Z,75.83
2019-04-16T04:06:40.616Z,64.50
2019-04-16T04:07:13.326Z,56.53
2019-04-16T04:07:45.092Z,52.37
2019-04-16T04:08:17.921Z,46.10
2019-04-16T04:08:53.132Z,41.40
2019-04-16T04:09:22.982Z,38.70
2019-04-16T04:09:55.184Z,32.30
2019-04-16T04:10:30.789Z,30.43
2019-04-16T04:10:59.500Z,25.07
2019-04-16T04:11:31.974Z,21.93
2019-04-16T04:12:03.158Z,20.23
2019-04-16T04:12:34.489Z,18.07
2019-04-16T04:13:05.843Z,16.47
2019-04-16T04:13:37.057Z,16.60
2019-04-16T04:14:09.345Z,16.50
2019-04-16T04:14:41.545Z,15.03
2019-04-16T04:15:13.092Z,15.57
2019-04-16T04:15:44.353Z,14.70
2019-04-16T04:16:15.600Z,14.90
2019-04-16T04:16:46.841Z,14.13
2019-04-16T04:17:18.045Z,13.57
2019-04-16T04:17:49.293Z,12.83
2019-04-16T04:18:20.483Z,14.20
2019-04-16T04:18:51.693Z,13.10
2019-04-16T04:19:22.877Z,12.43
2019-04-16T04:19:54.071Z,13.03
2019-04-16T04:20:25.293Z,13.73
2019-04-16T04:20:56.466Z,12.50
2019-04-16T04:21:27.695Z,12.17
2019-04-16T04:21:58.881Z,11.90
2019-04-16T04:22:30.068Z,11.90
2019-04-16T04:23:01.250Z,12.77
2019-04-16T04:23:32.444Z,12.70
2019-04-16T04:24:03.659Z,12.50
2019-04-16T04:24:34.854Z,12.40
2019-04-16T04:25:06.606Z,13.93
2019-04-16T04:25:38.942Z,12.87
2019-04-16T04:26:10.306Z,12.30
2019-04-16T04:26:42.402Z,11.87
2019-04-16T04:27:18.229Z,12.07
2019-04-16T04:27:47.703Z,13.60
2019-04-16T04:28:20.568Z,13.47
2019-04-16T04:28:52.643Z,13.10
2019-04-16T04:29:24.862Z,12.77
2019-04-16T04:29:57.270Z,12.83
2019-04-16T04:30:29.551Z,13.47
2019-04-16T04:31:01.984Z,12.90
2019-04-16T04:31:33.281Z,11.90
2019-04-16T04:32:04.482Z,12.47
2019-04-16T04:32:36.301Z,14.07
2019-04-16T04:33:09.431Z,13.73
2019-04-16T04:33:43.003Z,12.70
2019-04-16T04:34:16.987Z,12.50
2019-04-16T04:34:48.575Z,12.07
2019-04-16T04:35:22.077Z,12.53
2019-04-16T04:35:53.573Z,12.70
2019-04-16T04:36:27.093Z,11.93
2019-04-16T04:36:59.733Z,12.80
2019-04-16T04:37:31.929Z,13.77
2019-04-16T04:38:04.203Z,14.53
2019-04-16T04:38:37.571Z,16.13
2019-04-16T04:39:14.432Z,18.37
2019-04-16T04:39:44.253Z,19.97
2019-04-16T04:40:17.544Z,22.77
2019-04-16T04:40:50.952Z,21.83
2019-04-16T04:41:23.049Z,20.67
2019-04-16T04:41:56.448Z,20.63
2019-04-16T04:42:29.014Z,20.00
2019-04-16T04:43:01.725Z,20.80
2019-04-16T04:43:34.202Z,18.47
2019-04-16T04:44:06.586Z,16.67
2019-04-16T04:44:37.783Z,16.63
2019-04-16T04:45:10.201Z,16.27
2019-04-16T04:45:41.937Z,14.47
2019-04-16T04:46:14.970Z,13.97
2019-04-16T04:46:46.961Z,14.10
2019-04-16T04:47:19.677Z,13.80
2019-04-16T04:47:52.273Z,12.90
2019-04-16T04:48:24.344Z,14.00
2019-04-16T04:48:59.908Z,13.27
2019-04-16T04:49:30.377Z,14.03
2019-04-16T04:50:04.439Z,12.77
2019-04-16T04:50:36.088Z,12.53
2019-04-16T04:51:08.733Z,12.43
2019-04-16T04:51:43.527Z,12.77
2019-04-16T04:52:14.641Z,14.17
2019-04-16T04:52:46.889Z,13.17
2019-04-16T04:53:19.618Z,13.43
2019-04-16T04:53:51.363Z,13.77
2019-04-16T04:54:23.497Z,12.53
2019-04-16T04:54:54.942Z,11.47
2019-04-16T04:55:27.035Z,12.70
2019-04-16T04:55:58.301Z,12.40
2019-04-16T04:56:29.441Z,12.47
2019-04-16T04:57:00.657Z,13.87
2019-04-16T04:57:32.037Z,13.40
2019-04-16T04:58:03.465Z,12.53
2019-04-16T04:58:34.894Z,12.40
2019-04-16T04:59:06.240Z,12.43
2019-04-16T04:59:38.526Z,13.07
2019-04-16T05:00:09.845Z,13.00
2019-04-16T05:00:41.330Z,12.07
2019-04-16T05:01:14.100Z,12.37
2019-04-16T05:01:45.629Z,11.53
2019-04-16T05:02:16.956Z,11.87
2019-04-16T05:02:48.205Z,12.60
2019-04-16T05:03:38.204Z,13.77
2019-04-16T05:04:20.626Z,12.63
2019-04-16T05:04:58.068Z,13.20
2019-04-16T05:05:31.126Z,12.97
2019-04-16T05:06:19.016Z,12.07
2019-04-16T05:06:54.341Z,11.57
2019-04-16T05:07:25.759Z,12.10
2019-04-16T05:07:59.986Z,12.40
2019-04-16T05:08:31.368Z,12.30
2019-04-16T05:09:04.661Z,12.40
2019-04-16T05:09:36.763Z,12.27
2019-04-16T05:10:08.407Z,12.90
2019-04-16T05:10:42.925Z,12.30
2019-04-16T05:11:15.486Z,12.07
2019-04-16T05:11:48.377Z,12.07
2019-04-16T05:12:21.325Z,12.90
2019-04-16T05:12:53.575Z,12.50
2019-04-16T05:13:25.332Z,12.70
2019-04-16T05:13:57.110Z,14.53
2019-04-16T05:14:28.465Z,15.37
2019-04-16T05:14:59.698Z,13.43
2019-04-16T05:15:30.836Z,13.57
2019-04-16T05:16:03.085Z,12.27
2019-04-16T05:16:35.049Z,20.83
2019-04-16T05:17:07.464Z,36.47
2019-04-16T05:17:39.865Z,19.80
2019-04-16T05:18:11.599Z,14.63
2019-04-16T05:18:42.839Z,14.90
2019-04-16T05:19:15.511Z,14.00
2019-04-16T05:19:47.147Z,13.23
2019-04-16T05:20:18.388Z,13.90
2019-04-16T05:20:49.551Z,14.23
2019-04-16T05:21:20.780Z,13.83
2019-04-16T05:21:51.922Z,15.87
2019-04-16T05:22:23.155Z,14.50
2019-04-16T05:22:54.523Z,14.97
2019-04-16T05:23:26.175Z,15.03
2019-04-16T05:23:58.094Z,15.23
2019-04-16T05:24:29.998Z,14.43
2019-04-16T05:25:03.495Z,14.10
2019-04-16T05:25:34.717Z,14.20
2019-04-16T05:26:05.880Z,12.60
2019-04-16T05:26:37.287Z,13.27
2019-04-16T05:27:09.439Z,12.33
2019-04-16T05:27:41.574Z,12.57
2019-04-16T05:28:13.395Z,12.93
2019-04-16T05:28:45.728Z,12.70
2019-04-16T05:29:18.608Z,12.60
2019-04-16T05:29:49.996Z,12.90
2019-04-16T05:30:22.096Z,12.50
2019-04-16T05:30:53.448Z,12.57
2019-04-16T05:31:25.676Z,12.17
2019-04-16T05:31:58.248Z,12.93
2019-04-16T05:32:33.908Z,13.00
2019-04-16T05:33:05.633Z,12.13
2019-04-16T05:33:37.498Z,12.50
2019-04-16T05:34:09.208Z,11.93
2019-04-16T05:34:41.135Z,13.23
2019-04-16T05:35:12.504Z,12.17
2019-04-16T05:35:43.723Z,11.43
2019-04-16T05:36:15.437Z,12.40
2019-04-16T05:36:48.124Z,11.53
2019-04-16T05:37:20.929Z,13.00
2019-04-16T05:37:52.349Z,12.60
2019-04-16T05:38:24.494Z,12.07
2019-04-16T05:38:56.425Z,12.03
2019-04-16T05:39:28.569Z,11.60
2019-04-16T05:39:59.831Z,12.63
2019-04-16T05:40:34.348Z,11.30
2019-04-16T05:41:13.235Z,10.80
2019-04-16T05:41:37.227Z,11.30
2019-04-16T05:42:08.459Z,11.30
2019-04-16T05:42:39.655Z,11.00
2019-04-16T05:43:10.853Z,10.67
2019-04-16T05:43:42.055Z,11.73
2019-04-16T05:44:13.229Z,12.00
2019-04-16T05:44:44.469Z,12.03
2019-04-16T05:45:15.765Z,11.47
2019-04-16T05:45:46.956Z,11.00
2019-04-16T05:46:19.140Z,10.60
2019-04-16T05:46:50.349Z,10.43
2019-04-16T05:47:21.535Z,11.37
2019-04-16T05:47:52.708Z,10.07
2019-04-16T05:48:23.908Z,10.97
2019-04-16T05:48:55.092Z,10.40
2019-04-16T05:49:26.537Z,10.50
2019-04-16T05:49:58.687Z,10.73
2019-04-16T05:50:30.078Z,10.90
2019-04-16T05:51:01.258Z,10.43
2019-04-16T05:51:32.456Z,9.83
2019-04-16T05:52:04.172Z,9.67
2019-04-16T05:52:36.517Z,9.73
2019-04-16T05:53:09.336Z,10.07
2019-04-16T05:53:42.623Z,10.07
2019-04-16T05:54:21.636Z,9.77
2019-04-16T05:55:09.474Z,9.63
2019-04-16T05:55:49.651Z,9.57
2019-04-16T05:56:24.657Z,9.83
2019-04-16T05:57:13.289Z,9.93
2019-04-16T05:57:46.458Z,8.87
2019-04-16T05:58:17.742Z,10.50
2019-04-16T05:58:48.906Z,10.93
2019-04-16T05:59:20.063Z,10.83
2019-04-16T05:59:52.250Z,11.80
2019-04-16T06:00:25.325Z,10.93
2019-04-16T06:01:01.062Z,11.03
2019-04-16T06:01:46.227Z,10.73
2019-04-16T06:02:26.107Z,10.13
2019-04-16T06:02:57.341Z,10.13
2019-04-16T06:03:28.517Z,11.40
2019-04-16T06:03:59.741Z,10.47
2019-04-16T06:04:30.903Z,9.90
2019-04-16T06:05:03.725Z,10.33
2019-04-16T06:05:34.891Z,10.37
2019-04-16T06:06:06.115Z,10.63
2019-04-16T06:06:37.313Z,10.73
2019-04-16T06:07:08.525Z,10.27
2019-04-16T06:07:39.727Z,10.87
2019-04-16T06:08:11.239Z,10.47
2019-04-16T06:08:42.422Z,9.93
2019-04-16T06:09:13.631Z,10.60
2019-04-16T06:09:45.352Z,9.90
2019-04-16T06:10:18.269Z,10.83
2019-04-16T06:10:50.935Z,12.00
2019-04-16T06:11:29.419Z,10.93
2019-04-16T06:11:55.511Z,10.93
2019-04-16T06:12:28.605Z,10.20
2019-04-16T06:12:59.813Z,10.33
2019-04-16T06:13:35.583Z,11.23
2019-04-16T06:14:16.874Z,11.50
2019-04-16T06:15:01.304Z,11.53
2019-04-16T06:15:37.320Z,10.63
2019-04-16T06:16:16.602Z,11.07
2019-04-16T06:17:06.342Z,10.53
2019-04-16T06:17:55.866Z,10.37
2019-04-16T06:18:37.044Z,10.00
2019-04-16T06:19:15.038Z,11.17
2019-04-16T06:19:51.029Z,10.47
2019-04-16T06:20:24.074Z,10.60
2019-04-16T06:20:55.302Z,11.63
2019-04-16T06:21:29.489Z,10.23
2019-04-16T06:22:06.678Z,10.73
2019-04-16T06:22:51.776Z,9.77
2019-04-16T06:23:41.122Z,9.70
2019-04-16T06:24:12.281Z,10.77
2019-04-16T06:25:08.383Z,9.73
2019-04-16T06:25:41.268Z,9.77
2019-04-16T06:26:16.617Z,9.87
2019-04-16T06:27:07.216Z,9.93
2019-04-16T06:27:40.351Z,9.70
2019-04-16T06:28:20.384Z,10.23
2019-04-16T06:28:55.147Z,10.87
2019-04-16T06:29:25.392Z,10.63
2019-04-16T06:30:05.742Z,11.37
2019-04-16T06:30:38.787Z,10.87
2019-04-16T06:31:11.967Z,11.30
2019-04-16T06:31:45.031Z,12.50
2019-04-16T06:32:16.272Z,11.63
2019-04-16T06:33:01.385Z,11.23
2019-04-16T06:33:32.580Z,11.90
2019-04-16T06:34:24.354Z,12.57
2019-04-16T06:35:02.894Z,11.27
2019-04-16T06:35:43.594Z,11.10
2019-04-16T06:36:22.828Z,10.60
2019-04-16T06:36:58.829Z,10.83
2019-04-16T06:37:48.199Z,12.00
2019-04-16T06:38:21.571Z,12.03
2019-04-16T06:39:03.523Z,12.47
2019-04-16T06:39:38.529Z,12.07
2019-04-16T06:40:11.637Z,12.17
2019-04-16T06:40:48.134Z,11.93
2019-04-16T06:41:41.607Z,12.17
2019-04-16T06:42:06.104Z,11.07
2019-04-16T06:42:39.238Z,12.07
2019-04-16T06:43:28.795Z,11.47
2019-04-16T06:44:03.944Z,10.83
2019-04-16T06:44:36.886Z,12.17
2019-04-16T06:45:12.752Z,11.97
2019-04-16T06:45:45.812Z,12.07
2019-04-16T06:46:27.601Z,11.30
2019-04-16T06:47:00.671Z,11.10
2019-04-16T06:47:33.798Z,11.60
2019-04-16T06:48:13.225Z,11.60
2019-04-16T06:48:47.810Z,11.90
2019-04-16T06:49:20.903Z,12.27
2019-04-16T06:49:57.149Z,13.60
2019-04-16T06:50:32.529Z,11.43
2019-04-16T06:51:01.585Z,12.77
2019-04-16T06:51:50.975Z,12.20
2019-04-16T06:52:37.177Z,11.10
2019-04-16T06:53:08.619Z,12.77
2019-04-16T06:53:44.361Z,12.77
2019-04-16T06:54:34.403Z,12.47
2019-04-16T06:55:19.535Z,11.93
2019-04-16T06:55:56.564Z,11.73
2019-04-16T06:56:30.578Z,12.00
2019-04-16T06:57:20.233Z,11.57
2019-04-16T06:58:09.561Z,11.37
2019-04-16T06:58:51.259Z,11.73
2019-04-16T06:59:17.901Z,11.50
2019-04-16T06:59:59.459Z,11.80
2019-04-16T07:00:39.831Z,11.57
2019-04-16T07:01:17.252Z,10.97
2019-04-16T07:01:56.493Z,11.17
2019-04-16T07:02:44.006Z,10.90
2019-04-16T07:03:33.963Z,12.33
2019-04-16T07:04:07.127Z,11.00
2019-04-16T07:04:46.323Z,12.20
2019-04-16T07:05:35.981Z,11.07
2019-04-16T07:06:25.805Z,10.67
2019-04-16T07:07:15.440Z,9.77
2019-04-16T07:08:06.848Z,10.43
2019-04-16T07:08:41.984Z,10.60
2019-04-16T07:09:13.322Z,10.60
2019-04-16T07:09:46.437Z,11.47
2019-04-16T07:10:19.586Z,11.73
2019-04-16T07:10:53.692Z,12.00
2019-04-16T07:11:26.644Z,12.23